createdAt,value
2017-10-05T00:00:25.737Z,2.60
2017-10-05T00:02:51.836Z,2.10
2017-10-05T00:05:17.926Z,1.70
2017-10-05T00:07:44.005Z,1.77
2017-10-05T00:10:10.063Z,3.07
2017-10-05T00:12:36.144Z,4.47
2017-10-05T00:15:02.220Z,8.07
2017-10-05T00:17:29.031Z,0.93
2017-10-05T00:19:55.122Z,1.43
2017-10-05T00:22:21.169Z,0.77
2017-10-05T00:24:47.973Z,1.80
2017-10-05T00:27:14.800Z,7.43
2017-10-05T00:29:40.877Z,8.13
2017-10-05T00:32:07.769Z,3.30
2017-10-05T00:34:33.853Z,3.20
2017-10-05T00:36:59.926Z,6.53
2017-10-05T00:39:25.992Z,2.10
2017-10-05T00:41:52.809Z,5.27
2017-10-05T00:44:19.645Z,1.60
2017-10-05T00:46:46.473Z,6.33
2017-10-05T00:49:13.333Z,5.20
2017-10-05T00:51:39.434Z,4.27
2017-10-05T00:54:05.526Z,7.17
2017-10-05T00:56:31.629Z,6.00
2017-10-05T00:58:58.430Z,9.20
2017-10-05T01:01:24.499Z,6.20
2017-10-05T01:03:50.550Z,10.13
2017-10-05T01:06:17.389Z,10.33
2017-10-05T01:08:44.201Z,17.53
2017-10-05T01:11:10.265Z,12.47
2017-10-05T01:13:37.070Z,13.27
2017-10-05T01:16:03.174Z,18.27
2017-10-05T01:18:29.973Z,17.37
2017-10-05T01:20:56.086Z,37.47
2017-10-05T01:23:22.144Z,20.67
2017-10-05T01:25:48.222Z,26.00
2017-10-05T01:28:15.038Z,22.23
2017-10-05T01:30:41.105Z,24.50
2017-10-05T01:33:07.197Z,27.73
2017-10-05T01:35:33.278Z,20.77
2017-10-05T01:38:00.083Z,21.33
2017-10-05T01:40:26.921Z,15.17
2017-10-05T01:42:52.985Z,23.30
2017-10-05T01:45:19.070Z,26.07
2017-10-05T01:47:45.864Z,15.43
2017-10-05T01:50:11.914Z,20.17
2017-10-05T01:52:37.984Z,17.70
2017-10-05T01:55:04.041Z,27.53
2017-10-05T01:57:30.097Z,19.70
2017-10-05T01:59:56.162Z,33.23
2017-10-05T02:02:22.208Z,46.53
2017-10-05T02:04:48.277Z,31.17
2017-10-05T02:07:14.384Z,29.90
2017-10-05T02:09:40.437Z,15.37
2017-10-05T02:12:06.516Z,33.90
2017-10-05T02:14:32.580Z,37.80
2017-10-05T02:16:58.688Z,39.20
2017-10-05T02:19:24.758Z,25.60
2017-10-05T02:21:50.801Z,30.83
2017-10-05T02:24:16.874Z,31.90
2017-10-05T02:26:42.909Z,22.30
2017-10-05T02:29:08.962Z,19.70
2017-10-05T02:31:34.997Z,34.77
2017-10-05T02:34:01.062Z,21.47
2017-10-05T02:36:27.850Z,18.17
2017-10-05T02:38:53.904Z,29.23
2017-10-05T02:41:19.985Z,29.10
2017-10-05T02:43:46.032Z,29.53
2017-10-05T02:46:12.913Z,23.13
2017-10-05T02:48:38.978Z,23.33
2017-10-05T02:51:05.045Z,20.37
2017-10-05T02:53:31.840Z,28.90
2017-10-05T02:55:57.892Z,18.63
2017-10-05T02:58:24.741Z,32.10
2017-10-05T03:00:50.818Z,20.53
2017-10-05T03:03:16.885Z,30.00
2017-10-05T03:05:42.978Z,23.40
2017-10-05T03:08:09.048Z,24.43
2017-10-05T03:10:35.857Z,14.73
2017-10-05T03:13:01.904Z,27.67
2017-10-05T03:15:27.957Z,25.47
2017-10-05T03:17:54.012Z,23.53
2017-10-05T03:20:20.052Z,10.63
2017-10-05T03:22:46.100Z,26.73
2017-10-05T03:25:12.189Z,9.40
2017-10-05T03:27:38.236Z,25.80
2017-10-05T03:30:04.293Z,27.90
2017-10-05T03:32:30.338Z,14.37
2017-10-05T03:34:56.418Z,24.63
2017-10-05T03:37:22.486Z,41.97
2017-10-05T03:39:49.271Z,18.93
2017-10-05T03:42:15.355Z,30.40
2017-10-05T03:44:41.413Z,25.60
2017-10-05T03:47:07.474Z,29.83
2017-10-05T03:49:33.533Z,25.57
2017-10-05T03:51:59.599Z,19.60
2017-10-05T03:54:25.670Z,28.93
2017-10-05T03:56:52.474Z,22.00
2017-10-05T03:59:18.549Z,30.37
2017-10-05T04:01:44.601Z,30.43
2017-10-05T04:04:10.649Z,33.57
2017-10-05T04:06:36.729Z,25.00
2017-10-05T04:09:03.524Z,40.80
2017-10-05T04:11:29.600Z,27.93
2017-10-05T04:13:55.648Z,43.70
2017-10-05T04:16:21.821Z,36.63
2017-10-05T04:18:47.922Z,33.93
2017-10-05T04:21:13.977Z,36.50
2017-10-05T04:23:40.084Z,38.53
2017-10-05T04:26:06.153Z,38.70
2017-10-05T04:28:32.221Z,37.27
2017-10-05T04:30:58.265Z,34.90
2017-10-05T04:33:24.329Z,45.83
2017-10-05T04:35:50.410Z,30.23
2017-10-05T04:38:16.477Z,28.67
2017-10-05T04:40:42.553Z,37.20
2017-10-05T04:43:08.628Z,34.33
2017-10-05T04:45:35.445Z,39.23
2017-10-05T04:48:01.497Z,36.97
2017-10-05T04:50:27.579Z,38.33
2017-10-05T04:52:53.617Z,39.70
2017-10-05T04:55:19.703Z,34.33
2017-10-05T04:57:45.775Z,38.23
2017-10-05T05:00:11.930Z,44.97
2017-10-05T05:02:38.160Z,42.77
2017-10-05T05:05:04.345Z,47.10
2017-10-05T05:07:30.618Z,39.57
2017-10-05T05:09:57.162Z,30.83
2017-10-05T05:12:23.281Z,34.93
2017-10-05T05:14:49.437Z,36.87
2017-10-05T05:17:15.518Z,36.53
2017-10-05T05:19:41.570Z,37.33
2017-10-05T05:22:08.432Z,18.73
2017-10-05T05:24:35.565Z,32.33
2017-10-05T05:27:01.629Z,18.13
2017-10-05T05:29:28.042Z,22.50
2017-10-05T05:31:54.194Z,33.00
2017-10-05T05:34:20.269Z,25.30
2017-10-05T05:36:46.448Z,25.67
2017-10-05T05:39:14.017Z,21.57
2017-10-05T05:41:40.081Z,28.30
2017-10-05T05:44:06.162Z,22.40
2017-10-05T05:46:32.973Z,27.90
2017-10-05T05:48:59.061Z,24.93
2017-10-05T05:51:25.250Z,33.20
2017-10-05T05:53:51.330Z,22.10
2017-10-05T05:56:17.445Z,20.90
2017-10-05T05:58:43.509Z,16.43
2017-10-05T06:01:09.561Z,19.77
2017-10-05T06:03:35.634Z,23.67
2017-10-05T06:06:01.714Z,23.47
2017-10-05T06:08:27.769Z,15.47
2017-10-05T06:10:54.568Z,16.93
2017-10-05T06:13:20.629Z,19.63
2017-10-05T06:15:46.721Z,15.00
2017-10-05T06:18:13.525Z,13.57
2017-10-05T06:20:39.583Z,12.53
2017-10-05T06:23:05.640Z,12.23
2017-10-05T06:25:31.693Z,14.67
2017-10-05T06:27:57.744Z,15.40
2017-10-05T06:30:23.805Z,17.13
2017-10-05T06:32:49.923Z,15.50
2017-10-05T06:35:16.001Z,12.57
2017-10-05T06:37:42.037Z,14.90
2017-10-05T06:40:08.111Z,11.73
2017-10-05T06:42:34.246Z,12.53
2017-10-05T06:45:00.317Z,17.00
2017-10-05T06:47:26.385Z,16.53
2017-10-05T06:49:52.470Z,15.63
2017-10-05T06:52:19.265Z,11.73
2017-10-05T06:54:45.336Z,14.00
2017-10-05T06:57:11.397Z,11.73
2017-10-05T06:59:37.477Z,8.77
2017-10-05T07:02:03.546Z,10.40
2017-10-05T07:04:29.634Z,9.87
2017-10-05T07:06:56.432Z,16.07
2017-10-05T07:09:22.563Z,13.73
2017-10-05T07:11:48.645Z,9.10
2017-10-05T07:14:15.493Z,10.23
2017-10-05T07:16:41.569Z,12.20
2017-10-05T07:19:07.663Z,11.43
2017-10-05T07:21:33.737Z,13.20
2017-10-05T07:24:00.549Z,12.40
2017-10-05T07:26:26.627Z,10.23
2017-10-05T07:28:52.679Z,11.13
2017-10-05T07:31:18.741Z,7.63
2017-10-05T07:33:44.798Z,10.47
2017-10-05T07:36:11.594Z,9.97
2017-10-05T07:38:37.654Z,7.70
2017-10-05T07:41:03.705Z,6.43
2017-10-05T07:43:29.808Z,4.03
2017-10-05T07:45:55.884Z,3.13
2017-10-05T07:48:22.674Z,7.13
2017-10-05T07:50:48.777Z,4.47
2017-10-05T07:53:14.937Z,4.70
2017-10-05T07:55:41.797Z,3.57
2017-10-05T07:58:07.869Z,3.17
2017-10-05T08:00:33.929Z,3.23
2017-10-05T08:03:00.053Z,4.70
2017-10-05T08:05:26.118Z,3.00
2017-10-05T08:07:52.182Z,2.63
2017-10-05T08:10:18.232Z,1.70
2017-10-05T08:12:44.291Z,1.93
2017-10-05T08:15:10.341Z,2.43
2017-10-05T08:17:36.417Z,2.13
2017-10-05T08:20:02.465Z,2.80
2017-10-05T08:22:28.516Z,2.60
2017-10-05T08:24:54.581Z,5.23
2017-10-05T08:27:20.618Z,2.70
2017-10-05T08:29:46.669Z,3.03
2017-10-05T08:32:12.729Z,8.87
2017-10-05T08:34:38.769Z,2.23
2017-10-05T08:37:04.841Z,3.10
2017-10-05T08:39:30.996Z,2.70
2017-10-05T08:41:57.049Z,2.60
2017-10-05T08:44:23.113Z,4.83
2017-10-05T08:46:49.157Z,1.37
2017-10-05T08:49:15.201Z,2.47
2017-10-05T08:51:41.288Z,1.60
2017-10-05T08:54:07.338Z,1.63
2017-10-05T08:56:33.389Z,1.40
2017-10-05T08:58:59.463Z,1.00
2017-10-05T09:01:25.509Z,2.07
2017-10-05T09:03:51.579Z,1.70
2017-10-05T09:06:17.659Z,1.90
2017-10-05T09:08:43.749Z,1.27
2017-10-05T09:11:09.818Z,1.20
2017-10-05T09:13:35.902Z,1.20
2017-10-05T09:16:02.042Z,3.60
2017-10-05T09:18:28.141Z,2.03
2017-10-05T09:20:54.213Z,0.87
2017-10-05T09:23:20.296Z,1.00
2017-10-05T09:25:47.089Z,1.60
2017-10-05T09:28:13.127Z,1.00
2017-10-05T09:30:39.958Z,1.73
2017-10-05T09:33:06.026Z,1.60
2017-10-05T09:35:32.097Z,1.90
2017-10-05T09:37:58.230Z,1.27
2017-10-05T09:40:24.314Z,2.23
2017-10-05T09:42:50.387Z,1.57
2017-10-05T09:45:16.474Z,2.60
2017-10-05T09:47:42.561Z,2.17
2017-10-05T09:50:08.642Z,3.13
2017-10-05T09:52:34.717Z,1.87
2017-10-05T09:55:00.822Z,2.90
2017-10-05T09:57:26.919Z,0.77
2017-10-05T09:59:52.998Z,3.20
2017-10-05T10:02:19.069Z,2.27
2017-10-05T10:04:45.885Z,1.43
2017-10-05T10:07:11.981Z,1.30
2017-10-05T10:09:38.037Z,2.10
2017-10-05T10:12:04.103Z,2.23
2017-10-05T10:14:30.167Z,1.60
2017-10-05T10:16:56.237Z,1.60
2017-10-05T10:19:23.033Z,1.67
2017-10-05T10:21:50.892Z,1.53
2017-10-05T10:24:18.713Z,1.47
2017-10-05T10:26:46.557Z,2.83
2017-10-05T10:29:14.368Z,9.83
2017-10-05T10:31:42.189Z,3.43
2017-10-05T10:34:09.998Z,8.40
2017-10-05T10:36:37.843Z,2.87
2017-10-05T10:39:05.708Z,6.33
2017-10-05T10:41:33.561Z,6.63
2017-10-05T10:44:01.369Z,3.93
2017-10-05T10:46:29.197Z,2.63
2017-10-05T10:48:57.047Z,6.30
2017-10-05T10:51:24.928Z,5.00
2017-10-05T10:53:52.756Z,11.23
2017-10-05T10:56:20.644Z,8.10
2017-10-05T10:58:48.482Z,9.67
2017-10-05T11:01:16.336Z,4.03
2017-10-05T11:03:44.166Z,2.63
2017-10-05T11:06:12.033Z,5.00
2017-10-05T11:08:39.876Z,2.23
2017-10-05T11:11:07.679Z,5.03
2017-10-05T11:13:35.499Z,4.87
2017-10-05T11:16:03.308Z,5.73
2017-10-05T11:18:31.175Z,3.30
2017-10-05T11:20:59.018Z,4.97
2017-10-05T11:23:26.833Z,5.03
2017-10-05T11:25:54.648Z,2.50
2017-10-05T11:28:22.501Z,1.10
2017-10-05T11:30:50.344Z,4.23
2017-10-05T11:33:18.201Z,1.00
2017-10-05T11:35:46.098Z,0.50
2017-10-05T11:38:13.952Z,0.70
2017-10-05T11:40:40.086Z,0.93
2017-10-05T11:43:06.184Z,0.50
2017-10-05T11:45:32.266Z,0.40
2017-10-05T11:47:58.335Z,1.17
2017-10-05T11:50:24.420Z,0.60
2017-10-05T11:52:51.245Z,1.10
2017-10-05T11:55:17.366Z,1.90
2017-10-05T11:57:43.477Z,3.80
2017-10-05T12:00:09.569Z,2.60
2017-10-05T12:02:35.686Z,2.50
2017-10-05T12:05:02.516Z,4.27
2017-10-05T12:07:28.605Z,2.50
2017-10-05T12:09:54.688Z,2.20
2017-10-05T12:12:20.768Z,1.80
2017-10-05T12:14:47.615Z,9.20
2017-10-05T12:17:13.698Z,1.13
2017-10-05T12:19:40.526Z,0.73
2017-10-05T12:22:07.325Z,3.03
2017-10-05T12:24:33.426Z,3.13
2017-10-05T12:26:59.518Z,1.00
2017-10-05T12:29:25.577Z,6.57
2017-10-05T12:31:51.641Z,2.83
2017-10-05T12:34:17.741Z,2.83
2017-10-05T12:36:43.794Z,2.20
2017-10-05T12:39:09.847Z,2.00
2017-10-05T12:41:35.918Z,2.10
2017-10-05T12:44:01.983Z,5.00
2017-10-05T12:46:28.067Z,1.23
2017-10-05T12:48:54.145Z,6.33
2017-10-05T12:51:20.986Z,3.97
2017-10-05T12:53:48.821Z,2.50
2017-10-05T12:56:16.636Z,1.37
2017-10-05T12:58:44.514Z,11.43
2017-10-05T13:01:12.320Z,0.97
2017-10-05T13:03:40.160Z,1.73
2017-10-05T13:06:07.991Z,3.77
2017-10-05T13:08:35.813Z,2.53
2017-10-05T13:11:03.689Z,1.27
2017-10-05T13:13:31.529Z,2.00
2017-10-05T13:15:59.367Z,1.83
2017-10-05T13:18:27.521Z,1.60
2017-10-05T13:20:55.326Z,4.10
2017-10-05T13:23:23.170Z,3.03
2017-10-05T13:25:50.985Z,1.67
2017-10-05T13:28:18.829Z,1.73
2017-10-05T13:30:46.644Z,2.13
2017-10-05T13:33:14.461Z,0.70
2017-10-05T13:35:42.296Z,0.90
2017-10-05T13:38:10.113Z,1.70
2017-10-05T13:40:42.059Z,1.83
2017-10-05T13:43:10.353Z,3.53
2017-10-05T13:45:38.193Z,3.23
2017-10-05T13:48:06.013Z,5.03
2017-10-05T13:50:33.859Z,3.97
2017-10-05T13:53:01.676Z,9.80
2017-10-05T13:55:29.508Z,1.97
2017-10-05T13:57:57.418Z,3.60
2017-10-05T14:00:25.248Z,3.83
2017-10-05T14:02:53.070Z,2.57
2017-10-05T14:05:20.884Z,4.80
2017-10-05T14:07:48.706Z,3.60
2017-10-05T14:10:16.624Z,2.17
2017-10-05T14:12:44.477Z,2.07
2017-10-05T14:15:12.297Z,3.43
2017-10-05T14:17:40.144Z,7.13
2017-10-05T14:20:07.965Z,5.50
2017-10-05T14:22:35.880Z,2.50
2017-10-05T14:25:03.697Z,2.90
2017-10-05T14:27:31.534Z,3.60
2017-10-05T14:29:59.352Z,3.43
2017-10-05T14:32:27.183Z,4.40
2017-10-05T14:34:55.001Z,5.50
2017-10-05T14:37:22.833Z,6.73
2017-10-05T14:39:50.661Z,3.47
2017-10-05T14:42:18.477Z,3.30
2017-10-05T14:44:46.570Z,4.63
2017-10-05T14:47:14.706Z,2.70
2017-10-05T14:49:42.525Z,4.87
2017-10-05T14:52:10.506Z,16.33
2017-10-05T14:54:38.346Z,3.70
2017-10-05T14:57:06.181Z,7.27
2017-10-05T14:59:34.020Z,11.83
2017-10-05T15:02:01.872Z,6.40
2017-10-05T15:04:29.702Z,11.23
2017-10-05T15:06:57.529Z,5.97
2017-10-05T15:09:25.351Z,7.13
2017-10-05T15:11:53.178Z,2.80
2017-10-05T15:14:20.989Z,3.30
2017-10-05T15:16:50.755Z,15.30
2017-10-05T15:19:19.589Z,6.30
2017-10-05T15:21:47.400Z,3.07
2017-10-05T15:24:15.217Z,11.30
2017-10-05T15:26:43.021Z,15.63
2017-10-05T15:29:10.837Z,7.43
2017-10-05T15:31:38.664Z,15.27
2017-10-05T15:34:06.586Z,9.13
2017-10-05T15:36:34.406Z,15.50
2017-10-05T15:39:02.236Z,7.20
2017-10-05T15:41:30.061Z,10.33
2017-10-05T15:43:57.872Z,16.13
2017-10-05T15:46:25.724Z,8.73
2017-10-05T15:48:51.776Z,13.37
2017-10-05T15:51:17.816Z,9.20
2017-10-05T15:53:43.888Z,17.70
2017-10-05T15:56:09.950Z,11.87
2017-10-05T15:58:35.993Z,15.13
2017-10-05T16:01:02.050Z,10.50
2017-10-05T16:03:28.131Z,16.43
2017-10-05T16:05:54.967Z,8.13
2017-10-05T16:08:21.768Z,10.73
2017-10-05T16:10:47.830Z,14.27
2017-10-05T16:13:13.896Z,4.60
2017-10-05T16:15:39.966Z,18.83
2017-10-05T16:18:06.041Z,6.07
2017-10-05T16:20:32.849Z,12.37
2017-10-05T16:22:58.890Z,12.43
2017-10-05T16:25:24.958Z,14.20
2017-10-05T16:27:51.011Z,9.10
2017-10-05T16:30:17.077Z,11.70
2017-10-05T16:32:43.157Z,12.20
2017-10-05T16:35:09.233Z,11.63
2017-10-05T16:37:35.303Z,14.63
2017-10-05T16:40:01.377Z,22.13
2017-10-05T16:42:27.440Z,14.53
2017-10-05T16:44:54.236Z,20.43
2017-10-05T16:47:20.304Z,17.57
2017-10-05T16:49:46.350Z,11.03
2017-10-05T16:52:12.402Z,34.63
2017-10-05T16:54:38.477Z,12.33
2017-10-05T16:57:04.540Z,30.37
2017-10-05T16:59:30.657Z,13.70
2017-10-05T17:01:56.734Z,13.30
2017-10-05T17:04:23.561Z,17.27
2017-10-05T17:06:50.385Z,12.63
2017-10-05T17:09:16.440Z,17.70
2017-10-05T17:11:42.505Z,11.00
2017-10-05T17:14:09.285Z,18.97
2017-10-05T17:16:35.334Z,14.47
2017-10-05T17:19:02.126Z,16.77
2017-10-05T17:21:28.177Z,19.23
2017-10-05T17:23:54.251Z,11.97
2017-10-05T17:26:20.314Z,19.47
2017-10-05T17:28:46.394Z,16.70
2017-10-05T17:31:13.189Z,13.73
2017-10-05T17:33:39.250Z,11.40
2017-10-05T17:36:06.057Z,23.53
2017-10-05T17:38:32.849Z,13.33
2017-10-05T17:40:58.931Z,14.43
2017-10-05T17:43:24.982Z,14.97
2017-10-05T17:45:51.105Z,25.67
2017-10-05T17:48:17.152Z,23.40
2017-10-05T17:50:43.261Z,16.33
2017-10-05T17:53:10.140Z,24.20
2017-10-05T17:55:36.250Z,25.90
2017-10-05T17:58:02.293Z,19.07
2017-10-05T18:00:28.370Z,24.53
2017-10-05T18:02:54.443Z,28.77
2017-10-05T18:05:20.489Z,20.80
2017-10-05T18:07:46.601Z,29.33
2017-10-05T18:10:13.421Z,26.10
2017-10-05T18:12:39.464Z,26.90
2017-10-05T18:15:06.253Z,29.13
2017-10-05T18:17:32.313Z,36.07
2017-10-05T18:19:58.377Z,23.90
2017-10-05T18:22:24.465Z,26.17
2017-10-05T18:24:50.550Z,27.80
2017-10-05T18:27:16.618Z,18.77
2017-10-05T18:29:42.709Z,36.00
2017-10-05T18:32:08.789Z,24.00
2017-10-05T18:34:34.896Z,21.50
2017-10-05T18:37:01.055Z,27.97
2017-10-05T18:39:27.898Z,25.93
2017-10-05T18:41:54.009Z,14.50
2017-10-05T18:44:20.855Z,24.67
2017-10-05T18:46:46.911Z,13.93
2017-10-05T18:49:13.774Z,28.37
2017-10-05T18:51:40.588Z,13.20
2017-10-05T18:54:06.709Z,32.70
2017-10-05T18:56:34.487Z,27.57
2017-10-05T18:59:01.258Z,26.27
2017-10-05T19:01:27.430Z,17.17
2017-10-05T19:03:53.526Z,29.10
2017-10-05T19:06:19.595Z,23.10
2017-10-05T19:08:45.718Z,18.83
2017-10-05T19:11:11.786Z,15.50
2017-10-05T19:13:37.883Z,30.73
2017-10-05T19:16:03.983Z,28.30
2017-10-05T19:18:30.071Z,30.07
2017-10-05T19:20:56.861Z,25.10
2017-10-05T19:23:22.943Z,21.10
2017-10-05T19:25:49.027Z,14.40
2017-10-05T19:28:15.909Z,13.13
2017-10-05T19:30:42.755Z,12.87
2017-10-05T19:33:09.582Z,17.43
2017-10-05T19:35:35.640Z,21.00
2017-10-05T19:38:01.740Z,17.60
2017-10-05T19:40:27.810Z,19.40
2017-10-05T19:42:54.006Z,22.47
2017-10-05T19:45:20.166Z,21.60
2017-10-05T19:47:46.223Z,18.67
2017-10-05T19:50:12.322Z,26.50
2017-10-05T19:52:38.447Z,13.70
2017-10-05T19:55:04.523Z,10.20
2017-10-05T19:57:30.639Z,8.33
2017-10-05T19:59:56.736Z,22.63
2017-10-05T20:02:22.794Z,15.00
2017-10-05T20:04:48.850Z,9.00
2017-10-05T20:07:14.978Z,28.53
2017-10-05T20:09:41.123Z,15.60
2017-10-05T20:12:07.214Z,12.87
2017-10-05T20:14:39.172Z,22.90
2017-10-05T20:17:11.306Z,26.73
2017-10-05T20:19:38.170Z,30.50
2017-10-05T20:22:07.015Z,27.77
2017-10-05T20:24:46.043Z,40.03
2017-10-05T20:27:17.128Z,23.77
2017-10-05T20:33:06.692Z,13.60
2017-10-05T20:35:32.787Z,18.10
2017-10-05T20:37:58.918Z,25.90
2017-10-05T20:40:24.964Z,12.87
2017-10-05T20:42:51.102Z,19.83
2017-10-05T20:45:17.890Z,19.23
2017-10-05T20:47:43.939Z,23.30
2017-10-05T20:50:10.732Z,25.50
2017-10-05T20:52:36.905Z,20.40
2017-10-05T20:55:02.952Z,15.87
2017-10-05T20:57:29.039Z,22.83
2017-10-05T20:59:55.109Z,30.40
2017-10-05T21:02:21.171Z,24.73
2017-10-05T21:04:47.238Z,20.43
2017-10-05T21:07:13.289Z,17.93
2017-10-05T21:09:39.342Z,27.13
2017-10-05T21:12:06.158Z,20.90
2017-10-05T21:14:32.958Z,11.50
2017-10-05T21:16:59.030Z,20.53
2017-10-05T21:19:25.109Z,15.33
2017-10-05T21:21:51.170Z,19.50
2017-10-05T21:24:17.242Z,24.20
2017-10-05T21:26:43.323Z,14.30
2017-10-05T21:29:09.412Z,20.67
2017-10-05T21:31:35.471Z,8.80
2017-10-05T21:34:01.538Z,24.17
2017-10-05T21:36:27.598Z,17.47
2017-10-05T21:38:53.658Z,13.40
2017-10-05T21:41:19.737Z,15.17
2017-10-05T21:43:45.893Z,12.90
2017-10-05T21:46:12.705Z,8.20
2017-10-05T21:48:38.787Z,8.33
2017-10-05T21:51:04.850Z,9.27
2017-10-05T21:53:31.659Z,20.07
2017-10-05T21:55:59.395Z,6.73
2017-10-05T21:58:25.466Z,10.30
2017-10-05T22:00:51.564Z,16.70
2017-10-05T22:03:17.606Z,12.83
2017-10-05T22:05:44.418Z,20.90
2017-10-05T22:08:10.474Z,20.37
2017-10-05T22:10:36.548Z,18.10
2017-10-05T22:13:02.594Z,9.37
2017-10-05T22:15:28.702Z,10.80
2017-10-05T22:17:54.756Z,15.13
2017-10-05T22:20:20.815Z,15.17
2017-10-05T22:22:46.859Z,21.13
2017-10-05T22:25:12.922Z,12.10
2017-10-05T22:27:38.990Z,16.53
2017-10-05T22:30:05.046Z,9.10
2017-10-05T22:32:31.098Z,13.10
2017-10-05T22:34:57.166Z,14.93
2017-10-05T22:37:23.236Z,28.70
2017-10-05T22:39:49.290Z,11.93
2017-10-05T22:42:15.386Z,18.90
2017-10-05T22:44:41.446Z,22.30
2017-10-05T22:47:07.494Z,15.47
2017-10-05T22:49:33.563Z,10.30
2017-10-05T22:52:00.119Z,12.30
2017-10-05T22:54:26.170Z,12.80
2017-10-05T22:56:52.946Z,17.23
2017-10-05T22:59:19.758Z,11.73
2017-10-05T23:01:45.898Z,27.57
2017-10-05T23:04:11.966Z,18.00
2017-10-05T23:06:38.040Z,12.23
2017-10-05T23:09:04.094Z,14.63
2017-10-05T23:11:30.153Z,17.93
2017-10-05T23:13:56.222Z,18.07
2017-10-05T23:16:22.291Z,21.50
2017-10-05T23:18:49.130Z,15.43
2017-10-05T23:21:15.184Z,16.40
2017-10-05T23:23:41.266Z,31.00
2017-10-05T23:26:07.347Z,14.90
2017-10-05T23:28:34.158Z,15.53
2017-10-05T23:31:00.228Z,12.03
2017-10-05T23:33:26.319Z,17.40
2017-10-05T23:35:52.384Z,16.33
2017-10-05T23:38:19.198Z,13.13
2017-10-05T23:40:45.250Z,10.73
2017-10-05T23:43:11.302Z,5.40
2017-10-05T23:45:37.364Z,14.30
2017-10-05T23:48:04.170Z,16.73
2017-10-05T23:50:31.009Z,12.77
2017-10-05T23:52:57.804Z,12.80
2017-10-05T23:55:23.878Z,7.50
2017-10-05T23:57:49.925Z,15.80
